createdAt,value
2023-05-12T00:00:09.261Z,10.86
2023-05-12T00:05:49.988Z,11.93
2023-05-12T00:11:21.329Z,14.23
2023-05-12T00:16:47.999Z,15.50
2023-05-12T00:22:18.315Z,16.35
2023-05-12T00:27:46.424Z,16.94
2023-05-12T00:33:14.481Z,16.53
2023-05-12T00:38:40.111Z,14.70
2023-05-12T00:44:08.752Z,13.42
2023-05-12T00:49:36.089Z,12.46
2023-05-12T00:55:01.869Z,11.67
2023-05-12T01:00:46.920Z,11.08
2023-05-12T01:07:06.298Z,10.72
2023-05-12T01:20:36.489Z,10.23
2023-05-12T01:26:13.156Z,10.11
2023-05-12T01:31:44.291Z,10.02
2023-05-12T01:37:13.776Z,9.94
2023-05-12T01:42:46.269Z,9.91
2023-05-12T01:48:11.430Z,9.87
2023-05-12T01:53:36.691Z,9.82
2023-05-12T01:59:01.863Z,9.79
2023-05-12T02:04:29.936Z,9.79
2023-05-12T02:09:55.970Z,9.75
2023-05-12T02:15:24.392Z,9.71
2023-05-12T02:20:53.309Z,9.67
2023-05-12T02:26:19.779Z,10.47
2023-05-12T02:31:44.633Z,12.84
2023-05-12T02:37:13.298Z,14.29
2023-05-12T02:42:38.761Z,15.04
2023-05-12T02:48:10.956Z,15.46
2023-05-12T02:54:18.794Z,14.93
2023-05-12T02:59:51.453Z,13.05
2023-05-12T03:05:29.718Z,11.88
2023-05-12T03:10:54.909Z,11.10
2023-05-12T03:16:19.935Z,10.50
2023-05-12T03:22:26.501Z,9.98
2023-05-12T03:27:58.416Z,9.63
2023-05-12T03:33:23.821Z,9.40
2023-05-12T03:38:59.193Z,9.22
2023-05-12T03:44:46.830Z,9.15
2023-05-12T03:50:15.057Z,9.18
2023-05-12T03:55:45.937Z,9.23
2023-05-12T04:01:11.622Z,9.34
2023-05-12T04:06:42.345Z,9.47
2023-05-12T04:12:10.485Z,10.58
2023-05-12T04:17:35.383Z,13.17
2023-05-12T04:23:03.395Z,14.69
2023-05-12T04:28:28.252Z,15.61
2023-05-12T04:34:02.782Z,15.57
2023-05-12T04:39:33.932Z,14.04
2023-05-12T04:45:13.322Z,13.05
2023-05-12T04:50:44.312Z,12.42
2023-05-12T04:56:09.175Z,12.08
2023-05-12T05:01:45.099Z,11.90
2023-05-12T05:07:34.502Z,11.83
2023-05-12T05:13:37.425Z,11.85
2023-05-12T05:19:06.905Z,11.95
2023-05-12T05:24:49.115Z,12.08
2023-05-12T05:30:13.765Z,12.17
2023-05-12T05:35:50.962Z,12.26
2023-05-12T05:42:05.133Z,12.33
2023-05-12T05:47:43.024Z,12.40
2023-05-12T05:53:08.510Z,12.49
2023-05-12T05:58:36.477Z,12.55
2023-05-12T06:04:03.367Z,12.59
2023-05-12T06:09:30.387Z,12.63
2023-05-12T06:14:56.252Z,12.72
2023-05-12T06:20:53.839Z,12.80
2023-05-12T06:27:00.649Z,12.98
2023-05-12T06:32:57.331Z,13.13
2023-05-12T06:38:54.959Z,13.30
2023-05-12T06:44:54.099Z,13.42
2023-05-12T06:50:40.195Z,13.56
2023-05-12T06:56:29.566Z,13.73
2023-05-12T07:01:59.071Z,13.86
2023-05-12T07:07:31.605Z,13.88
2023-05-12T07:13:28.003Z,13.99
2023-05-12T07:19:13.199Z,14.13
2023-05-12T07:24:42.195Z,14.23
2023-05-12T07:30:10.335Z,14.29
2023-05-12T07:35:35.182Z,14.39
2023-05-12T07:41:03.433Z,14.53
2023-05-12T07:47:28.665Z,14.73
2023-05-12T08:33:30.066Z,16.22
2023-05-12T08:38:57.526Z,16.37
2023-05-12T08:45:23.200Z,16.45
2023-05-12T08:50:58.095Z,16.54
2023-05-12T09:02:52.030Z,16.70
2023-05-12T09:08:20.583Z,16.88
2023-05-12T09:14:29.304Z,17.17
2023-05-12T09:19:59.483Z,17.42
2023-05-12T09:25:29.871Z,17.62
2023-05-12T09:30:59.654Z,17.83
2023-05-12T09:36:41.811Z,18.00
2023-05-12T09:42:13.746Z,18.13
2023-05-12T09:47:42.130Z,18.29
2023-05-12T09:53:24.340Z,18.39
2023-05-12T09:58:51.034Z,18.53
2023-05-12T10:04:38.097Z,18.68
2023-05-12T10:10:05.889Z,18.88
2023-05-12T10:15:40.358Z,19.10
2023-05-12T10:21:33.118Z,19.21
2023-05-12T10:27:06.658Z,19.46
2023-05-12T10:32:43.923Z,19.60
2023-05-12T10:38:18.568Z,19.62
2023-05-12T10:43:56.483Z,19.65
2023-05-12T10:49:33.477Z,19.77
2023-05-12T10:55:04.769Z,19.97
2023-05-12T11:00:43.997Z,20.09
2023-05-12T11:06:22.706Z,20.24
2023-05-12T11:12:17.555Z,20.46
2023-05-12T11:18:16.725Z,20.72
2023-05-12T11:23:51.493Z,20.85
2023-05-12T11:29:16.446Z,20.98
2023-05-12T11:34:44.158Z,21.00
2023-05-12T11:40:24.479Z,21.00
2023-05-12T11:45:53.810Z,21.06
2023-05-12T11:51:25.220Z,21.19
2023-05-12T11:56:55.355Z,21.33
2023-05-12T12:02:22.270Z,21.41
2023-05-12T12:07:49.823Z,21.39
2023-05-12T12:13:27.885Z,21.38
2023-05-12T12:19:16.044Z,21.59
2023-05-12T12:24:44.398Z,21.82
2023-05-12T12:30:10.929Z,21.92
2023-05-12T12:35:38.758Z,22.15
2023-05-12T12:41:03.211Z,22.26
2023-05-12T12:46:34.940Z,22.38
2023-05-12T12:52:02.676Z,22.63
2023-05-12T12:57:31.122Z,22.75
2023-05-12T13:02:57.142Z,22.54
2023-05-12T13:08:24.814Z,22.46
2023-05-12T13:13:52.577Z,22.67
2023-05-12T13:19:20.747Z,22.88
2023-05-12T13:24:57.118Z,23.06
2023-05-12T13:30:23.054Z,23.14
2023-05-12T13:35:48.938Z,23.27
2023-05-12T13:41:16.983Z,23.43
2023-05-12T13:46:45.092Z,23.56
2023-05-12T13:52:09.757Z,23.76
2023-05-12T13:57:40.330Z,23.80
2023-05-12T14:03:08.593Z,23.77
2023-05-12T14:08:34.771Z,23.72
2023-05-12T14:14:12.267Z,23.83
2023-05-12T14:20:27.214Z,23.85
2023-05-12T14:27:01.421Z,23.94
2023-05-12T15:12:16.507Z,23.36
2023-05-12T15:17:48.153Z,23.67
2023-05-12T15:23:51.628Z,23.93
2023-05-12T15:29:39.914Z,24.13
2023-05-12T15:35:10.241Z,24.03
2023-05-12T15:41:02.994Z,23.82
2023-05-12T15:46:47.937Z,23.78
2023-05-12T15:52:13.038Z,23.87
2023-05-12T15:57:49.134Z,23.94
2023-05-12T16:03:35.083Z,23.81
2023-05-12T16:09:21.809Z,23.68
2023-05-12T16:15:50.205Z,23.37
2023-05-12T16:21:28.473Z,23.28
2023-05-12T16:27:03.991Z,23.21
2023-05-12T16:32:38.042Z,23.26
2023-05-12T16:38:08.998Z,23.39
2023-05-12T16:43:44.475Z,23.38
2023-05-12T16:50:01.250Z,23.26
2023-05-12T16:55:29.632Z,23.09
2023-05-12T17:01:06.257Z,22.89
2023-05-12T17:06:31.451Z,22.68
2023-05-12T17:11:59.092Z,22.47
2023-05-12T17:17:42.512Z,22.11
2023-05-12T17:23:10.568Z,21.80
2023-05-12T17:29:19.642Z,21.57
2023-05-12T17:35:00.000Z,21.42
2023-05-12T17:40:46.143Z,21.31
2023-05-12T17:46:54.116Z,21.05
2023-05-12T17:52:34.033Z,20.77
2023-05-12T17:58:15.981Z,20.50
2023-05-12T18:03:44.359Z,20.19
2023-05-12T18:09:16.491Z,19.99
2023-05-12T18:14:52.058Z,19.87
2023-05-12T18:20:37.616Z,19.73
2023-05-12T18:26:22.654Z,19.58
2023-05-12T18:31:50.629Z,19.38
2023-05-12T18:37:19.023Z,19.16
2023-05-12T18:43:44.349Z,18.96
2023-05-12T18:50:10.202Z,18.68
2023-05-12T18:55:37.796Z,18.47
2023-05-12T19:01:27.566Z,18.28
2023-05-12T19:06:58.772Z,18.08
2023-05-12T19:12:28.286Z,17.89
2023-05-12T19:18:09.482Z,17.72
2023-05-12T19:23:58.068Z,17.48
2023-05-12T19:29:30.179Z,17.26
2023-05-12T19:34:58.093Z,17.03
2023-05-12T19:40:23.377Z,16.81
2023-05-12T19:45:52.268Z,16.62
2023-05-12T19:51:17.161Z,16.47
2023-05-12T19:57:03.801Z,16.32
2023-05-12T20:02:32.107Z,16.19
2023-05-12T20:08:20.662Z,16.01
2023-05-12T20:14:06.347Z,15.82
2023-05-12T20:19:57.321Z,15.61
2023-05-12T20:25:42.795Z,15.35
2023-05-12T20:31:10.513Z,15.11
2023-05-12T20:37:00.010Z,14.89
2023-05-12T20:42:27.751Z,14.73
2023-05-12T20:47:54.661Z,14.62
2023-05-12T20:53:37.837Z,14.50
2023-05-12T20:59:15.501Z,14.38
2023-05-12T21:04:51.986Z,14.26
2023-05-12T21:10:21.886Z,14.06
2023-05-12T21:15:46.326Z,13.92
2023-05-12T21:21:14.231Z,13.83
2023-05-12T21:26:40.495Z,13.77
2023-05-12T21:32:08.015Z,13.76
2023-05-12T21:37:49.883Z,13.71
2023-05-12T21:43:22.802Z,13.66
2023-05-12T21:49:03.065Z,13.60
2023-05-12T21:54:48.938Z,13.53
2023-05-12T22:00:20.568Z,13.47
2023-05-12T22:06:01.303Z,13.38
2023-05-12T22:11:25.794Z,13.28
2023-05-12T22:16:56.395Z,13.21
2023-05-12T22:22:33.300Z,13.11
2023-05-12T22:28:05.882Z,13.00
2023-05-12T22:33:43.619Z,12.92
2023-05-12T22:39:23.007Z,12.81
2023-05-12T22:45:09.086Z,12.69
2023-05-12T22:50:36.351Z,12.53
2023-05-12T22:56:04.045Z,12.33
2023-05-12T23:01:31.929Z,12.18
2023-05-12T23:07:08.987Z,12.04
2023-05-12T23:12:33.821Z,11.96
2023-05-12T23:18:17.015Z,11.91
2023-05-12T23:23:57.550Z,11.82
2023-05-12T23:29:34.780Z,11.72
2023-05-12T23:35:03.032Z,11.59
2023-05-12T23:40:33.527Z,11.51
2023-05-12T23:45:58.614Z,11.42
2023-05-12T23:51:28.938Z,11.35
2023-05-12T23:56:56.806Z,11.26
